createdAt,value
2023-02-16T00:00:30.067Z,50.866482
2023-02-16T00:01:30.072Z,50.866653
2023-02-16T00:02:30.095Z,50.866653
2023-02-16T00:03:30.172Z,50.866589
2023-02-16T00:04:30.042Z,50.866207
2023-02-16T00:05:30.022Z,50.866703
2023-02-16T00:06:30.012Z,50.866825
2023-02-16T00:07:30.004Z,50.866543
2023-02-16T00:08:30.010Z,50.866863
2023-02-16T00:09:29.994Z,50.866600
2023-02-16T00:10:29.985Z,50.866753
2023-02-16T00:11:29.972Z,50.866608
2023-02-16T00:12:29.951Z,50.866611
2023-02-16T00:13:30.966Z,50.866669
2023-02-16T00:14:29.966Z,50.866722
2023-02-16T00:15:29.944Z,50.866966
2023-02-16T00:16:29.947Z,50.866795
2023-02-16T00:17:29.983Z,50.866657
2023-02-16T00:18:29.921Z,50.866806
2023-02-16T00:19:30.832Z,50.866844
2023-02-16T00:20:29.901Z,50.866726
2023-02-16T00:21:29.893Z,50.866722
2023-02-16T00:22:29.889Z,50.866673
2023-02-16T00:23:29.890Z,50.866711
2023-02-16T00:34:20.693Z,50.866764
2023-02-16T00:35:20.698Z,50.866875
2023-02-16T00:36:20.675Z,50.866837
2023-02-16T00:37:20.669Z,50.866760
2023-02-16T00:38:20.700Z,50.866711
2023-02-16T00:39:20.659Z,50.866558
2023-02-16T00:40:20.649Z,50.866634
2023-02-16T00:41:20.632Z,50.866608
2023-02-16T00:42:20.629Z,50.866711
2023-02-16T00:43:20.634Z,50.866825
2023-02-16T00:44:20.610Z,50.866833
2023-02-16T00:45:20.619Z,50.866753
2023-02-16T00:46:20.633Z,50.866787
2023-02-16T00:47:20.590Z,50.866875
2023-02-16T00:48:20.601Z,50.866871
2023-02-16T00:49:20.591Z,50.867016
2023-02-16T00:50:20.563Z,50.866932
2023-02-16T00:51:26.053Z,50.866917
2023-02-16T00:52:23.522Z,50.866833
2023-02-16T00:53:20.554Z,50.866852
2023-02-16T00:54:20.551Z,50.866814
2023-02-16T00:55:20.522Z,50.866879
2023-02-16T00:56:20.515Z,50.867142
2023-02-16T00:57:20.512Z,50.867168
2023-02-16T00:58:20.524Z,50.867218
2023-02-16T00:59:21.112Z,50.866993
2023-02-16T01:00:20.485Z,50.866856
2023-02-16T01:01:20.499Z,50.866817
2023-02-16T01:02:21.104Z,50.866913
2023-02-16T01:03:20.629Z,50.866947
2023-02-16T01:04:21.140Z,50.867161
2023-02-16T01:05:21.188Z,50.867191
2023-02-16T01:06:20.438Z,50.866840
2023-02-16T01:07:20.434Z,50.866825
2023-02-16T01:08:20.422Z,50.866810
2023-02-16T01:09:21.021Z,50.866806
2023-02-16T01:10:20.420Z,50.866798
2023-02-16T01:11:20.399Z,50.866821
2023-02-16T01:12:20.401Z,50.866764
2023-02-16T01:13:20.385Z,50.866791
2023-02-16T01:14:20.370Z,50.866798
2023-02-16T01:15:20.372Z,50.866783
2023-02-16T01:16:20.350Z,50.866928
2023-02-16T01:17:20.354Z,50.866856
2023-02-16T01:18:21.150Z,50.866798
2023-02-16T01:19:20.319Z,50.866760
2023-02-16T01:20:20.324Z,50.866737
2023-02-16T01:21:20.353Z,50.866810
2023-02-16T01:22:20.332Z,50.866745
2023-02-16T01:23:22.045Z,50.866802
2023-02-16T01:24:21.020Z,50.866776
2023-02-16T01:25:20.279Z,50.866707
2023-02-16T01:26:20.329Z,50.866787
2023-02-16T01:27:20.270Z,50.866760
2023-02-16T01:28:21.026Z,50.866718
2023-02-16T01:29:20.287Z,50.866795
2023-02-16T01:30:20.271Z,50.866764
2023-02-16T01:37:09.179Z,50.867008
2023-02-16T01:38:09.171Z,50.866913
2023-02-16T01:39:09.168Z,50.866920
2023-02-16T01:40:09.139Z,50.866699
2023-02-16T01:41:09.970Z,50.866741
2023-02-16T01:42:09.135Z,50.866714
2023-02-16T01:43:09.131Z,50.866714
2023-02-16T01:44:09.126Z,50.866718
2023-02-16T01:45:09.111Z,50.866711
2023-02-16T01:46:10.034Z,50.866764
2023-02-16T01:47:09.110Z,50.866699
2023-02-16T01:48:10.044Z,50.866737
2023-02-16T01:49:10.970Z,50.866711
2023-02-16T01:50:09.120Z,50.866688
2023-02-16T01:51:09.064Z,50.866695
2023-02-16T01:52:09.064Z,50.866657
2023-02-16T01:53:09.971Z,50.866714
2023-02-16T01:54:09.044Z,50.866711
2023-02-16T01:55:09.034Z,50.866699
2023-02-16T01:56:09.024Z,50.866741
2023-02-16T01:57:09.047Z,50.866707
2023-02-16T01:58:09.546Z,50.866718
2023-02-16T01:59:08.992Z,50.866722
2023-02-16T02:00:09.009Z,50.866737
2023-02-16T02:01:09.970Z,50.866783
2023-02-16T02:02:09.101Z,50.866814
2023-02-16T02:03:09.067Z,50.866764
2023-02-16T02:04:09.009Z,50.866787
2023-02-16T02:05:09.558Z,50.866745
2023-02-16T02:06:09.478Z,50.866749
2023-02-16T02:07:08.931Z,50.866703
2023-02-16T02:08:08.930Z,50.866707
2023-02-16T02:09:08.957Z,50.866707
2023-02-16T02:10:08.932Z,50.866760
2023-02-16T02:11:08.911Z,50.866722
2023-02-16T02:12:08.920Z,50.866753
2023-02-16T02:13:08.944Z,50.866722
2023-02-16T02:14:08.896Z,50.866676
2023-02-16T21:27:37.059Z,50.866676
2023-02-16T21:28:51.064Z,50.866585
2023-02-16T21:29:33.208Z,50.866684
2023-02-16T21:30:32.083Z,50.866489
2023-02-16T21:31:30.272Z,50.866722
2023-02-16T21:32:30.187Z,50.866661
2023-02-16T21:33:30.171Z,50.866734
2023-02-16T21:34:30.177Z,50.866783
2023-02-16T21:35:30.172Z,50.866703
2023-02-16T21:36:30.168Z,50.866634
2023-02-16T21:37:30.142Z,50.866661
2023-02-16T21:38:30.129Z,50.866631
2023-02-16T21:39:30.126Z,50.866638
2023-02-16T21:40:30.122Z,50.866795
2023-02-16T21:41:30.128Z,50.866772
2023-02-16T21:42:30.111Z,50.866772
2023-02-16T21:43:30.098Z,50.866814
2023-02-16T21:44:30.114Z,50.866608
2023-02-16T21:45:30.086Z,50.866547
2023-02-16T21:46:30.079Z,50.866768
2023-02-16T21:47:30.054Z,50.866604
2023-02-16T21:48:31.050Z,50.866741
2023-02-16T21:49:30.054Z,50.866756
2023-02-16T21:50:30.044Z,50.866951
2023-02-16T21:51:30.042Z,50.866928
2023-02-16T21:52:30.025Z,50.866890
2023-02-16T21:53:30.017Z,50.866917
2023-02-16T21:54:30.032Z,50.866585
2023-02-16T21:55:30.578Z,50.866383
2023-02-16T21:56:30.038Z,50.866467
2023-02-16T21:57:29.981Z,50.866344
2023-02-16T21:58:29.980Z,50.866512
2023-02-16T21:59:29.993Z,50.866459
2023-02-16T22:00:29.964Z,50.866425
2023-02-16T22:01:30.492Z,50.866463
2023-02-16T22:02:29.954Z,50.866531
2023-02-16T22:03:29.951Z,50.866787
2023-02-16T22:04:29.943Z,50.866764
2023-02-16T22:05:29.924Z,50.866684
2023-02-16T22:06:29.926Z,50.866669
2023-02-16T22:07:29.911Z,50.866737
2023-02-16T22:08:29.893Z,50.866879
2023-02-16T22:09:29.898Z,50.866909
2023-02-16T22:10:29.876Z,50.866886
2023-02-16T22:11:29.876Z,50.866898
2023-02-16T22:12:29.872Z,50.866920
2023-02-16T22:13:29.868Z,50.866844
2023-02-16T22:14:29.846Z,50.866913
2023-02-16T22:15:29.881Z,50.866924
2023-02-16T22:16:30.626Z,50.866913
2023-02-16T22:17:29.833Z,50.866898
2023-02-16T22:18:29.853Z,50.866955
2023-02-16T22:43:38.092Z,50.866791
2023-02-16T22:44:38.124Z,50.866753
2023-02-16T22:45:38.094Z,50.866703
2023-02-16T22:46:38.084Z,50.866718
2023-02-16T22:47:38.056Z,50.866741
2023-02-16T22:48:38.040Z,50.866764
2023-02-16T22:49:38.025Z,50.866814
2023-02-16T22:50:38.040Z,50.866779
2023-02-16T22:51:38.626Z,50.866741
2023-02-16T22:52:39.014Z,50.866955
2023-02-16T22:53:38.006Z,50.866882
2023-02-16T22:54:38.007Z,50.866535
2023-02-16T22:55:37.983Z,50.866734
2023-02-16T22:56:37.995Z,50.866833
2023-02-16T22:57:37.979Z,50.866875
2023-02-16T22:58:37.957Z,50.866898
2023-02-16T22:59:37.964Z,50.866684
2023-02-16T23:00:37.954Z,50.866493
2023-02-16T23:01:37.952Z,50.866756
2023-02-16T23:02:37.922Z,50.866695
2023-02-16T23:03:37.960Z,50.866539
2023-02-16T23:04:37.961Z,50.866791
2023-02-16T23:05:37.918Z,50.866726
2023-02-16T23:06:41.115Z,50.866676
2023-02-16T23:07:37.885Z,50.866859
2023-02-16T23:08:39.619Z,50.866817
2023-02-16T23:09:37.871Z,50.866749
2023-02-16T23:10:37.888Z,50.866730
2023-02-16T23:20:25.766Z,50.866947
2023-02-16T23:21:25.780Z,50.866879
2023-02-16T23:22:25.757Z,50.866676
2023-02-16T23:23:25.766Z,50.866974
2023-02-16T23:24:25.766Z,50.866894
2023-02-16T23:25:25.742Z,50.866550
2023-02-16T23:26:25.744Z,50.866592
2023-02-16T23:27:25.716Z,50.866650
2023-02-16T23:28:25.718Z,50.866848
2023-02-16T23:29:25.703Z,50.866802
2023-02-16T23:30:25.756Z,50.866791
2023-02-16T23:31:25.878Z,50.866722
2023-02-16T23:32:25.674Z,50.866684
2023-02-16T23:33:25.671Z,50.866619
2023-02-16T23:34:25.668Z,50.866642
2023-02-16T23:35:27.733Z,50.866642
2023-02-16T23:36:29.154Z,50.866657
2023-02-16T23:37:25.654Z,50.866791
2023-02-16T23:38:25.630Z,50.866924
2023-02-16T23:39:25.614Z,50.866932
2023-02-16T23:40:26.608Z,50.866982
2023-02-16T23:41:27.166Z,50.867077
2023-02-16T23:42:25.641Z,50.867077
2023-02-16T23:43:25.605Z,50.866444
2023-02-16T23:44:25.579Z,50.866287
2023-02-16T23:45:25.598Z,50.866676
2023-02-16T23:46:29.221Z,50.866547
2023-02-16T23:47:25.554Z,50.866692
2023-02-16T23:48:25.556Z,50.866787
2023-02-16T23:49:25.537Z,50.866741
2023-02-16T23:50:25.552Z,50.866707
2023-02-16T23:51:25.523Z,50.866875
2023-02-16T23:52:25.512Z,50.866863
2023-02-16T23:53:25.521Z,50.866951
2023-02-16T23:54:26.189Z,50.866817
2023-02-16T23:55:25.493Z,50.866806
2023-02-16T23:56:25.481Z,50.866932
2023-02-16T23:57:25.468Z,50.866707
2023-02-16T23:58:25.472Z,50.866966
2023-02-16T23:59:25.459Z,50.866962
